Time;durP1;ratioP1;P1;durP2;ratioP2;P2;SDS_P1;SDS_P2;PMS_P1;PMS_P2;Temp;Humidity;BMP_temperature;BMP_pressure;BME280_temperature;BME280_humidity;BME280_pressure;Samples;Min_cycle;Max_cycle;Signal;HPM_P1;HPM_P2
2022/01/04 00:04:26;;;;;;;0.85;0.55;;;14.50;70.40;;;;;;10520982;28;20553;-55
2022/01/04 00:09:27;;;;;;;1.58;0.60;;;14.50;70.40;;;;;;10520600;28;20119;-56
2022/01/04 00:14:28;;;;;;;1.23;0.60;;;14.50;70.50;;;;;;10520034;28;20046;-56
2022/01/04 00:19:29;;;;;;;0.70;0.50;;;14.50;70.50;;;;;;10537990;28;20106;-55
2022/01/04 00:24:29;;;;;;;0.85;0.60;;;14.50;70.50;;;;;;10518816;28;20123;-56
2022/01/04 00:29:30;;;;;;;1.00;0.60;;;14.50;70.50;;;;;;10519101;28;20483;-55
2022/01/04 00:34:31;;;;;;;0.52;0.50;;;14.50;70.50;;;;;;10518728;28;20078;-55
2022/01/04 00:39:31;;;;;;;0.70;0.52;;;14.50;70.50;;;;;;10502098;28;20396;-56
2022/01/04 00:44:32;;;;;;;1.02;0.52;;;14.50;70.40;;;;;;10518813;28;20114;-55
2022/01/04 00:49:33;;;;;;;0.77;0.50;;;14.50;70.40;;;;;;10536573;28;20048;-56
2022/01/04 00:54:35;;;;;;;1.77;0.60;;;14.50;70.50;;;;;;10537100;28;20384;-55
2022/01/04 00:59:35;;;;;;;0.82;0.40;;;14.50;70.40;;;;;;10543221;28;20479;-55
2022/01/04 01:04:36;;;;;;;0.85;0.65;;;14.40;70.40;;;;;;10536717;28;20046;-55
2022/01/04 01:09:47;;;;;;;1.15;0.57;;;14.50;70.40;;;;;;10518206;28;20032;-56
2022/01/04 01:14:47;;;;;;;1.00;0.65;;;14.50;70.40;;;;;;10535894;28;20115;-54
2022/01/04 01:19:48;;;;;;;1.25;0.63;;;14.40;70.40;;;;;;10518030;28;20119;-56
2022/01/04 01:24:49;;;;;;;0.73;0.60;;;14.40;70.40;;;;;;10500803;28;20143;-56
2022/01/04 01:29:50;;;;;;;0.90;0.60;;;14.40;70.40;;;;;;10518122;28;20487;-55
2022/01/04 01:34:50;;;;;;;0.85;0.70;;;14.40;70.40;;;;;;10517592;28;20111;-56
2022/01/04 01:39:51;;;;;;;2.15;0.80;;;14.40;70.40;;;;;;10526087;28;20032;-56
2022/01/04 01:44:52;;;;;;;0.77;0.60;;;14.40;70.40;;;;;;10525709;28;20039;-56
2022/01/04 01:49:53;;;;;;;1.42;0.68;;;14.40;70.40;;;;;;10544449;28;20093;-55
2022/01/04 01:54:53;;;;;;;1.02;0.80;;;14.40;70.40;;;;;;10529436;28;20479;-55
2022/01/04 01:59:54;;;;;;;0.70;0.50;;;14.40;70.40;;;;;;10564115;28;20106;-56
2022/01/04 02:04:55;;;;;;;0.88;0.60;;;14.40;70.40;;;;;;10508198;28;20032;-55
2022/01/04 02:10:07;;;;;;;0.98;0.82;;;14.40;70.40;;;;;;10542813;28;20039;-54
2022/01/04 02:15:11;;;;;;;1.25;0.77;;;14.40;70.40;;;;;;10542635;28;20036;-54
2022/01/04 02:20:13;;;;;;;0.90;0.60;;;14.40;70.50;;;;;;10524414;28;20028;-55
2022/01/04 02:25:14;;;;;;;1.08;0.80;;;14.40;70.40;;;;;;10542035;28;20638;-54
2022/01/04 02:30:18;;;;;;;0.82;0.60;;;14.40;70.50;;;;;;10542013;28;20067;-55
2022/01/04 02:35:25;;;;;;;0.80;0.60;;;14.40;70.40;;;;;;10541727;28;20089;-56
2022/01/04 02:40:26;;;;;;;0.77;0.50;;;14.40;70.40;;;;;;10542460;28;20038;-55
2022/01/04 02:45:27;;;;;;;1.50;0.70;;;14.40;70.40;;;;;;10523803;28;20093;-56
2022/01/04 02:50:28;;;;;;;1.10;0.55;;;14.40;70.40;;;;;;10540965;28;20031;-55
2022/01/04 02:55:29;;;;;;;1.00;0.80;;;14.40;70.40;;;;;;10549453;28;20051;-55
2022/01/04 03:00:30;;;;;;;0.93;0.43;;;14.40;70.50;;;;;;10574850;28;20063;-54
2022/01/04 03:05:30;;;;;;;0.82;0.63;;;14.40;70.40;;;;;;10522642;28;20061;-55
2022/01/04 03:10:32;;;;;;;1.65;0.75;;;14.40;70.40;;;;;;10540233;28;20115;-54
2022/01/04 03:15:33;;;;;;;1.15;0.60;;;14.30;70.40;;;;;;10540116;28;20052;-55
2022/01/04 03:20:34;;;;;;;1.00;0.80;;;14.30;70.40;;;;;;10540025;28;20027;-55
2022/01/04 03:25:36;;;;;;;1.02;0.88;;;14.30;70.40;;;;;;10457683;28;20049;-55
2022/01/04 03:30:37;;;;;;;1.85;0.68;;;14.30;70.40;;;;;;10438612;28;20060;-56
2022/01/04 03:35:38;;;;;;;0.90;0.77;;;14.30;70.40;;;;;;10454845;28;20170;-55
2022/01/04 03:40:38;;;;;;;1.17;0.80;;;14.30;70.40;;;;;;10455980;28;20437;-55
2022/01/04 03:45:39;;;;;;;1.38;0.80;;;14.30;70.40;;;;;;10455834;28;20036;-56
2022/01/04 03:50:40;;;;;;;1.45;0.90;;;14.30;70.40;;;;;;10454249;28;20025;-55
2022/01/04 03:55:41;;;;;;;1.77;0.60;;;14.30;70.40;;;;;;10465306;28;20453;-55
2022/01/04 04:00:41;;;;;;;1.02;0.70;;;14.30;70.40;;;;;;10485126;28;20100;-56
2022/01/04 04:05:42;;;;;;;0.93;0.50;;;14.30;70.40;;;;;;10453889;28;20040;-55
2022/01/04 04:10:43;;;;;;;1.10;0.60;;;14.30;70.50;;;;;;10454112;28;20029;-56
2022/01/04 04:15:44;;;;;;;0.80;0.50;;;14.30;70.40;;;;;;10453530;28;20037;-56
2022/01/04 04:20:45;;;;;;;1.83;1.13;;;14.30;70.40;;;;;;10454419;28;20074;-55
2022/01/04 04:25:46;;;;;;;1.50;0.70;;;14.30;70.40;;;;;;10454834;28;20045;-56
2022/01/04 04:30:47;;;;;;;2.10;0.85;;;14.30;70.40;;;;;;10452850;28;20033;-54
2022/01/04 04:35:48;;;;;;;0.60;0.50;;;14.30;70.40;;;;;;10436190;28;20041;-56
2022/01/04 04:40:49;;;;;;;0.50;0.50;;;14.20;70.40;;;;;;10452406;28;20292;-55
2022/01/04 04:45:50;;;;;;;1.33;0.70;;;14.30;70.40;;;;;;10452233;28;20444;-55
2022/01/04 04:50:50;;;;;;;1.52;0.60;;;14.30;70.40;;;;;;10452109;28;20445;-55
2022/01/04 04:55:51;;;;;;;1.00;0.50;;;14.20;70.40;;;;;;10464435;28;20028;-55
2022/01/04 05:00:51;;;;;;;1.40;0.90;;;14.30;70.40;;;;;;10482507;28;20025;-55
2022/01/04 05:05:52;;;;;;;1.20;0.70;;;14.30;70.40;;;;;;10453091;28;20107;-55
2022/01/04 05:10:53;;;;;;;1.38;0.60;;;14.30;70.40;;;;;;10434829;28;20037;-56
2022/01/04 05:15:54;;;;;;;1.13;0.80;;;14.30;70.40;;;;;;10451388;28;20171;-55
2022/01/04 05:20:54;;;;;;;1.38;0.90;;;14.30;70.40;;;;;;10451603;28;20467;-55
2022/01/04 05:25:55;;;;;;;1.08;0.73;;;14.20;70.30;;;;;;10532199;28;20625;-53
2022/01/04 05:30:56;;;;;;;2.05;0.70;;;14.20;70.30;;;;;;10517655;28;20408;-55
2022/01/04 05:35:57;;;;;;;0.85;0.65;;;14.20;70.40;;;;;;10536019;28;20392;-56
2022/01/04 05:40:57;;;;;;;1.02;0.75;;;14.20;70.40;;;;;;10535514;28;20586;-54
2022/01/04 05:45:58;;;;;;;1.23;0.70;;;14.20;70.40;;;;;;10535498;28;20111;-55
2022/01/04 05:50:59;;;;;;;0.93;0.50;;;14.20;70.40;;;;;;10517191;28;20460;-55
2022/01/04 05:56:00;;;;;;;1.10;0.70;;;14.20;70.40;;;;;;10548278;28;20027;-55
2022/01/04 06:01:01;;;;;;;0.88;0.65;;;14.20;70.40;;;;;;10546738;28;20391;-55
2022/01/04 06:06:03;;;;;;;0.80;0.80;;;14.20;70.40;;;;;;10535087;28;20456;-54
2022/01/04 06:11:04;;;;;;;1.00;0.70;;;14.20;70.40;;;;;;10516793;28;20089;-56
2022/01/04 06:16:04;;;;;;;0.88;0.73;;;14.20;70.40;;;;;;10500160;28;20028;-53
2022/01/04 06:21:06;;;;;;;0.88;0.77;;;14.20;70.40;;;;;;10535065;28;20027;-54
2022/01/04 06:26:08;;;;;;;0.80;0.60;;;14.20;70.90;;;;;;10523681;28;20062;-55
2022/01/04 06:31:09;;;;;;;1.75;0.82;;;14.20;70.40;;;;;;10542019;28;20476;-55
2022/01/04 06:36:09;;;;;;;1.10;0.98;;;14.20;70.40;;;;;;10524023;28;20024;-55
2022/01/04 06:41:10;;;;;;;1.35;0.80;;;14.10;70.30;;;;;;10541429;28;20020;-55
2022/01/04 06:46:13;;;;;;;0.90;0.63;;;14.20;70.40;;;;;;10523398;28;20028;-55
2022/01/04 06:51:14;;;;;;;1.45;0.80;;;14.20;70.40;;;;;;10506674;28;20077;-54
2022/01/04 06:56:15;;;;;;;1.30;0.82;;;14.20;70.40;;;;;;10537787;28;20499;-56
2022/01/04 07:01:16;;;;;;;1.10;0.85;;;14.20;70.40;;;;;;10568614;28;20035;-55
2022/01/04 07:06:16;;;;;;;0.95;0.60;;;14.20;70.40;;;;;;10523111;28;20535;-55
2022/01/04 07:11:17;;;;;;;1.63;0.85;;;14.10;70.30;;;;;;10522644;28;20115;-54
2022/01/04 07:16:18;;;;;;;1.05;0.90;;;14.10;70.30;;;;;;10522677;28;20036;-55
2022/01/04 07:21:19;;;;;;;1.48;1.05;;;14.10;70.30;;;;;;10505230;28;20503;-56
2022/01/04 07:26:21;;;;;;;1.38;0.98;;;14.10;70.30;;;;;;10521589;28;20476;-56
2022/01/04 07:31:22;;;;;;;1.30;0.93;;;14.10;70.30;;;;;;10521722;28;20055;-56
2022/01/04 07:36:23;;;;;;;0.90;0.70;;;14.10;70.30;;;;;;10503712;28;20028;-53
2022/01/04 07:41:24;;;;;;;0.98;0.77;;;14.10;70.30;;;;;;10521107;28;20391;-55
2022/01/04 07:46:25;;;;;;;0.90;0.65;;;14.10;70.30;;;;;;10520965;28;20034;-55
2022/01/04 07:51:27;;;;;;;1.17;0.90;;;14.10;70.30;;;;;;10520845;28;20020;-55
2022/01/04 07:56:27;;;;;;;1.17;0.95;;;14.10;70.30;;;;;;10536657;28;20027;-54
2022/01/04 08:01:29;;;;;;;1.00;0.90;;;14.10;70.30;;;;;;10563436;28;20129;-55
2022/01/04 08:06:30;;;;;;;2.40;1.10;;;14.10;70.30;;;;;;10535747;28;20032;-55
2022/01/04 08:11:32;;;;;;;0.88;0.70;;;14.10;70.30;;;;;;10515853;28;20054;-54
2022/01/04 08:16:32;;;;;;;1.27;1.00;;;14.10;70.30;;;;;;10501132;28;20408;-55
2022/01/04 08:21:33;;;;;;;1.15;0.90;;;14.10;70.40;;;;;;10537368;28;20111;-55
2022/01/04 08:26:36;;;;;;;1.00;0.80;;;14.10;70.30;;;;;;10537454;28;20028;-55
2022/01/04 08:31:36;;;;;;;1.08;0.82;;;14.10;70.30;;;;;;10537347;28;20035;-55
2022/01/04 08:36:38;;;;;;;0.80;0.70;;;14.10;70.40;;;;;;10518878;28;20028;-55
2022/01/04 08:41:39;;;;;;;1.45;0.90;;;14.10;70.40;;;;;;10537623;28;20024;-55
2022/01/04 08:46:40;;;;;;;1.45;1.02;;;14.10;70.40;;;;;;10536447;28;20535;-55
2022/01/04 08:51:41;;;;;;;1.00;0.70;;;14.10;70.30;;;;;;10518756;28;20028;-55
2022/01/04 08:56:43;;;;;;;1.75;1.08;;;14.10;70.30;;;;;;10519983;28;20032;-54
2022/01/04 09:01:44;;;;;;;1.55;0.98;;;14.10;70.30;;;;;;10541890;28;20090;-55
2022/01/04 09:06:45;;;;;;;1.25;0.90;;;14.00;70.30;;;;;;10518255;28;20103;-56
2022/01/04 09:11:45;;;;;;;1.05;0.95;;;14.10;70.30;;;;;;10536621;28;20028;-56
2022/01/04 09:22:06;;;;;;;1.00;0.80;;;14.00;70.40;;;;;;10521085;28;20036;-56
2022/01/04 09:27:07;;;;;;;1.38;1.10;;;14.00;70.30;;;;;;10536719;28;20028;-55
2022/01/04 09:32:13;;;;;;;1.38;1.00;;;14.00;70.30;;;;;;10517691;28;20115;-56
2022/01/04 09:37:13;;;;;;;1.55;1.10;;;14.00;70.30;;;;;;10517385;28;20537;-56
2022/01/04 09:42:14;;;;;;;2.10;1.30;;;14.00;70.30;;;;;;10517561;28;20080;-55
2022/01/04 09:47:15;;;;;;;1.17;0.98;;;14.00;70.30;;;;;;10500589;28;20021;-54
2022/01/04 09:52:21;;;;;;;1.48;1.02;;;14.00;70.30;;;;;;10535244;28;20130;-55
2022/01/04 09:57:22;;;;;;;1.88;1.10;;;14.00;70.30;;;;;;10543989;28;20023;-56
2022/01/04 10:02:30;;;;;;;1.30;0.93;;;14.00;70.30;;;;;;10562084;28;20539;-56
2022/01/04 10:07:31;;;;;;;1.65;1.17;;;14.00;70.30;;;;;;10525803;28;20035;-54
2022/01/04 10:12:55;;;;;;;2.60;1.33;;;14.00;70.30;;;;;;10524579;28;20532;-55
2022/01/04 10:17:57;;;;;;;1.80;1.15;;;14.00;70.30;;;;;;10524256;28;20024;-56
2022/01/04 10:23:13;;;;;;;1.63;1.25;;;14.00;70.30;;;;;;10524297;28;20036;-55
2022/01/04 10:28:29;;;;;;;1.73;1.20;;;14.00;70.30;;;;;;10524031;28;20031;-55
2022/01/04 10:33:32;;;;;;;1.60;1.27;;;14.00;70.30;;;;;;10542438;28;20059;-53
2022/01/04 10:38:37;;;;;;;1.60;1.20;;;14.00;70.30;;;;;;10523700;28;20032;-56
2022/01/04 10:43:43;;;;;;;1.38;1.13;;;14.00;70.30;;;;;;10523592;28;20036;-55
2022/01/04 10:48:50;;;;;;;1.50;1.02;;;14.00;70.30;;;;;;10507345;28;20051;-56
2022/01/04 10:53:56;;;;;;;1.63;1.52;;;14.00;70.30;;;;;;10523292;28;20031;-56
2022/01/04 10:59:02;;;;;;;1.63;1.20;;;14.00;70.30;;;;;;10578542;28;20082;-55
2022/01/04 11:04:03;;;;;;;1.90;1.30;;;14.00;70.30;;;;;;10527425;28;20123;-56
2022/01/04 11:09:05;;;;;;;1.48;1.27;;;14.00;70.30;;;;;;10522529;28;20028;-56
2022/01/04 11:14:10;;;;;;;1.20;0.95;;;14.00;70.30;;;;;;10522305;28;20116;-55
2022/01/04 11:19:10;;;;;;;1.58;1.05;;;14.00;70.30;;;;;;10522432;28;20066;-55
2022/01/04 11:24:16;;;;;;;1.50;1.10;;;14.00;70.40;;;;;;10505003;28;20067;-55
2022/01/04 11:29:20;;;;;;;2.25;1.38;;;14.00;70.30;;;;;;10522322;28;20035;-56
2022/01/04 11:34:59;;;;;;;1.20;1.02;;;14.00;70.40;;;;;;10521691;28;20085;-55
2022/01/04 11:40:34;;;;;;;1.15;0.95;;;14.00;70.40;;;;;;10539301;28;20024;-56
2022/01/04 11:45:48;;;;;;;1.30;1.00;;;14.00;70.40;;;;;;10520879;28;20100;-56
2022/01/04 11:50:49;;;;;;;1.50;1.20;;;14.00;70.40;;;;;;10505322;28;20032;-55
2022/01/04 11:55:57;;;;;;;2.15;1.13;;;13.90;70.40;;;;;;10515101;28;20033;-56
2022/01/04 12:01:02;;;;;;;1.92;1.55;;;13.90;70.30;;;;;;10568823;28;20226;-56
2022/01/04 12:06:05;;;;;;;1.42;1.27;;;13.90;70.30;;;;;;10538315;28;20361;-56
2022/01/04 12:11:42;;;;;;;1.50;1.17;;;13.90;70.30;;;;;;10503617;28;20111;-55
2022/01/04 12:16:43;;;;;;;1.17;0.98;;;14.00;70.40;;;;;;10398833;28;20036;-56
2022/01/04 12:22:03;;;;;;;1.10;0.90;;;14.00;70.40;;;;;;10537460;28;20047;-55
2022/01/04 12:27:09;;;;;;;;;;;13.90;70.30;;;;;;10519932;28;20046;-56
2022/01/04 12:32:21;;;;;;;1.40;1.13;;;13.90;70.40;;;;;;10519510;28;19908;-56
2022/01/04 12:37:21;;;;;;;1.85;1.20;;;13.90;70.40;;;;;;10537209;28;20027;-56
2022/01/04 12:42:22;;;;;;;1.42;1.02;;;13.90;70.40;;;;;;10536882;28;20032;-55
2022/01/04 12:47:24;;;;;;;1.50;1.08;;;13.90;70.40;;;;;;10537357;28;20025;-55
2022/01/04 12:52:25;;;;;;;1.13;0.90;;;13.90;70.40;;;;;;10536701;28;20420;-54
2022/01/04 12:57:26;;;;;;;1.52;1.30;;;13.90;70.30;;;;;;10542987;28;20020;-56
2022/01/04 13:02:30;;;;;;;1.55;1.10;;;13.90;70.30;;;;;;10536485;28;20372;-55
2022/01/04 13:07:39;;;;;;;1.65;1.00;;;13.90;70.30;;;;;;10518817;28;20032;-55
2022/01/04 13:12:46;;;;;;;1.65;1.35;;;13.90;70.40;;;;;;10518075;28;20028;-56
2022/01/04 13:17:55;;;;;;;1.30;1.13;;;13.90;70.30;;;;;;10518092;28;20096;-55
2022/01/04 13:22:56;;;;;;;1.77;1.02;;;13.90;70.30;;;;;;10517671;28;20058;-56
2022/01/04 13:28:04;;;;;;;1.45;1.00;;;13.90;70.30;;;;;;10500829;28;20093;-56
2022/01/04 13:33:06;;;;;;;1.25;0.90;;;13.90;70.30;;;;;;10539378;28;20490;-56
2022/01/04 13:38:12;;;;;;;1.70;1.13;;;13.90;70.30;;;;;;10526270;28;20025;-56
2022/01/04 13:43:18;;;;;;;1.40;1.02;;;13.90;70.30;;;;;;10509148;28;20450;-55
2022/01/04 13:48:31;;;;;;;1.23;1.00;;;14.00;70.30;;;;;;10525781;28;20450;-55
2022/01/04 13:53:39;;;;;;;1.17;1.08;;;13.90;70.30;;;;;;10526623;28;20039;-56
2022/01/04 13:58:47;;;;;;;1.52;1.30;;;13.90;70.30;;;;;;10578331;28;20028;-55
2022/01/04 14:04:12;;;;;;;1.50;1.30;;;13.90;70.40;;;;;;10549667;28;20530;-55
2022/01/04 14:09:16;;;;;;;1.17;1.00;;;13.90;70.40;;;;;;10527026;28;20047;-56
2022/01/04 14:14:24;;;;;;;1.13;1.00;;;13.90;70.40;;;;;;10525171;28;20130;-56
2022/01/04 14:19:30;;;;;;;1.60;1.27;;;13.90;70.40;;;;;;10542474;28;20062;-56
2022/01/04 14:24:49;;;;;;;1.30;1.00;;;13.90;70.40;;;;;;10507273;28;20051;-54
2022/01/04 14:30:00;;;;;;;1.45;1.30;;;13.90;70.50;;;;;;10542402;28;20024;-54
2022/01/04 14:35:26;;;;;;;1.00;0.90;;;13.80;70.40;;;;;;10542363;28;20032;-55
2022/01/04 14:40:32;;;;;;;1.27;1.00;;;13.80;70.40;;;;;;10524832;28;20054;-54
2022/01/04 14:45:33;;;;;;;1.23;1.05;;;13.90;70.40;;;;;;10523339;28;20034;-55
2022/01/04 14:50:34;;;;;;;1.38;1.00;;;13.90;70.40;;;;;;10523143;28;20036;-55
2022/01/04 14:55:34;;;;;;;1.08;0.65;;;13.80;70.40;;;;;;10515190;28;20126;-55
2022/01/04 15:00:37;;;;;;;1.33;1.20;;;13.80;71.00;;;;;;10574822;28;20103;-55
2022/01/04 15:05:38;;;;;;;1.27;0.93;;;13.80;70.40;;;;;;10523429;28;20430;-56
2022/01/04 15:10:39;;;;;;;1.27;0.68;;;13.80;70.40;;;;;;10522380;28;20117;-55
2022/01/04 15:15:39;;;;;;;0.85;0.75;;;13.80;70.40;;;;;;10521525;28;20047;-54
2022/01/04 15:20:40;;;;;;;1.92;1.10;;;13.80;70.40;;;;;;10540542;28;20606;-56
2022/01/04 15:25:41;;;;;;;2.10;0.90;;;13.80;70.40;;;;;;10521610;28;20044;-54
2022/01/04 15:30:41;;;;;;;1.35;0.80;;;13.80;70.50;;;;;;10539660;28;20107;-55
2022/01/04 15:35:46;;;;;;;1.25;0.90;;;13.80;70.50;;;;;;10521359;28;20111;-56
2022/01/04 15:40:47;;;;;;;1.42;1.05;;;13.80;71.00;;;;;;10521236;28;20020;-54
2022/01/04 15:45:48;;;;;;;1.20;1.00;;;13.80;70.40;;;;;;10539196;28;20028;-55
2022/01/04 15:50:52;;;;;;;0.70;0.70;;;13.80;70.40;;;;;;10520638;28;20028;-56
2022/01/04 15:55:53;;;;;;;1.17;0.65;;;13.80;70.30;;;;;;10531628;28;20164;-55
2022/01/04 16:00:54;;;;;;;1.30;0.80;;;13.80;70.30;;;;;;10534245;28;20498;-55
2022/01/04 16:05:56;;;;;;;1.05;0.75;;;13.80;70.30;;;;;;10538271;28;20047;-55
2022/01/04 16:10:57;;;;;;;1.20;0.82;;;13.70;70.30;;;;;;10503744;28;20031;-54
2022/01/04 16:16:04;;;;;;;1.23;0.88;;;13.70;70.30;;;;;;10519811;28;20380;-56
2022/01/04 16:21:35;;;;;;;1.10;0.80;;;13.70;70.10;;;;;;10520904;28;20020;-56
2022/01/04 16:26:39;;;;;;;0.85;0.70;;;13.70;70.20;;;;;;10537605;28;20043;-55
2022/01/04 16:31:41;;;;;;;2.25;0.88;;;13.70;70.30;;;;;;10519539;28;20032;-55
2022/01/04 16:36:42;;;;;;;1.15;0.80;;;13.70;70.20;;;;;;10518480;28;20472;-55
2022/01/04 16:41:45;;;;;;;1.05;0.95;;;13.70;70.20;;;;;;10518995;28;20024;-55
2022/01/04 16:46:46;;;;;;;0.73;0.60;;;13.70;70.20;;;;;;10537056;28;20028;-55
2022/01/04 16:51:49;;;;;;;1.00;0.77;;;13.70;70.10;;;;;;10518678;28;20567;-56
2022/01/04 16:56:49;;;;;;;1.10;0.63;;;13.70;70.20;;;;;;10556075;28;20027;-55
2022/01/04 17:01:50;;;;;;;2.38;0.82;;;13.70;70.20;;;;;;10559396;28;20463;-55
2022/01/04 17:06:52;;;;;;;0.98;0.70;;;13.70;70.10;;;;;;10518192;28;20369;-54
2022/01/04 17:16:54;;;;;;;1.20;0.80;;;13.70;70.70;;;;;;10536029;28;20502;-56
2022/01/04 17:21:54;;;;;;;1.30;0.85;;;13.70;70.00;;;;;;10501002;28;20467;-56
2022/01/04 17:26:55;;;;;;;1.13;0.80;;;13.70;70.00;;;;;;10535933;28;20032;-56
2022/01/04 17:31:58;;;;;;;0.80;0.65;;;13.70;70.20;;;;;;10535939;28;20031;-55
2022/01/04 17:36:59;;;;;;;1.23;0.85;;;13.70;70.10;;;;;;10517969;28;20027;-54
2022/01/04 17:42:00;;;;;;;1.75;0.95;;;13.60;70.10;;;;;;10535901;28;20047;-56
2022/01/04 17:47:00;;;;;;;1.17;0.95;;;13.60;70.00;;;;;;10517560;28;20480;-56
2022/01/04 17:52:01;;;;;;;1.58;0.98;;;13.60;70.10;;;;;;10535480;28;20501;-55
2022/01/04 17:57:02;;;;;;;0.88;0.73;;;13.60;70.10;;;;;;10556431;28;20059;-55
2022/01/04 18:02:03;;;;;;;1.80;0.98;;;13.60;70.00;;;;;;10538245;28;20058;-56
2022/01/04 18:07:04;;;;;;;1.38;0.80;;;13.60;70.00;;;;;;10535121;28;20035;-56
2022/01/04 18:12:05;;;;;;;1.20;0.90;;;13.60;69.90;;;;;;10517296;28;20024;-54
2022/01/04 18:17:06;;;;;;;1.38;0.80;;;13.60;69.80;;;;;;10517067;28;20043;-55
2022/01/04 18:22:06;;;;;;;1.20;0.80;;;13.60;69.90;;;;;;10524442;28;20066;-56
2022/01/04 18:27:07;;;;;;;1.85;1.05;;;13.60;69.80;;;;;;10524370;28;20080;-56
2022/01/04 18:32:08;;;;;;;0.90;0.60;;;13.60;69.70;;;;;;10523992;28;20409;-55
2022/01/04 18:37:09;;;;;;;1.25;0.70;;;13.50;69.80;;;;;;10523800;28;20034;-54
2022/01/04 18:42:10;;;;;;;1.50;0.90;;;13.60;70.00;;;;;;10524246;28;20012;-55
2022/01/04 18:47:10;;;;;;;0.93;0.65;;;13.60;70.00;;;;;;10541618;28;20024;-56
2022/01/04 18:52:11;;;;;;;1.13;0.98;;;13.60;69.90;;;;;;10523407;28;20108;-55
2022/01/04 18:57:12;;;;;;;2.97;0.90;;;13.60;70.00;;;;;;10563888;28;20161;-56
2022/01/04 19:02:12;;;;;;;1.45;0.93;;;13.50;69.90;;;;;;10542815;28;20024;-56
2022/01/04 19:07:13;;;;;;;1.30;0.85;;;13.60;70.00;;;;;;10522764;28;20484;-55
2022/01/04 19:12:14;;;;;;;1.85;1.08;;;13.60;70.00;;;;;;10540661;28;20107;-55
2022/01/04 19:17:15;;;;;;;1.40;0.80;;;13.50;70.00;;;;;;10522345;28;20040;-55
2022/01/04 19:22:16;;;;;;;1.17;0.88;;;13.50;70.00;;;;;;10540146;28;20051;-55
2022/01/04 19:27:17;;;;;;;4.40;0.70;;;13.50;70.10;;;;;;10522413;28;20118;-55
2022/01/04 19:37:39;;;;;;;1.33;0.77;;;13.50;70.10;;;;;;10507759;28;20032;-54
2022/01/04 19:42:40;;;;;;;0.70;0.50;;;13.50;70.10;;;;;;10539408;28;20115;-56
2022/01/04 19:47:41;;;;;;;1.48;0.88;;;13.50;70.00;;;;;;10539207;28;20499;-54
2022/01/04 19:52:42;;;;;;;0.70;0.70;;;13.50;70.00;;;;;;10504121;28;20407;-56
2022/01/04 19:57:42;;;;;;;1.13;0.73;;;13.50;70.10;;;;;;10547672;28;20024;-55
2022/01/04 20:02:44;;;;;;;1.55;0.82;;;13.50;70.10;;;;;;10554046;28;20035;-56
2022/01/04 20:07:45;;;;;;;1.05;0.63;;;13.50;70.20;;;;;;10520663;28;20103;-55
2022/01/04 20:12:49;;;;;;;0.70;0.52;;;13.50;70.10;;;;;;10520135;28;20040;-55
2022/01/04 20:17:50;;;;;;;1.05;0.90;;;13.50;70.20;;;;;;10537973;28;20107;-55
2022/01/04 20:22:52;;;;;;;1.13;0.88;;;13.50;70.20;;;;;;10537658;28;20048;-56
2022/01/04 20:27:53;;;;;;;1.00;0.70;;;13.50;70.30;;;;;;10502714;28;20115;-54
2022/01/04 20:32:55;;;;;;;1.05;0.60;;;13.50;70.20;;;;;;10519709;28;20047;-55
2022/01/04 20:37:55;;;;;;;0.90;0.60;;;13.50;70.20;;;;;;10537325;28;20024;-55
2022/01/04 20:42:57;;;;;;;1.45;0.93;;;13.40;70.20;;;;;;10518632;28;20035;-55
2022/01/04 20:48:00;;;;;;;0.88;0.77;;;13.40;70.20;;;;;;10536906;28;20438;-56
2022/01/04 20:53:00;;;;;;;1.20;0.70;;;13.40;70.20;;;;;;10519053;28;20066;-56
2022/01/04 20:58:01;;;;;;;0.80;0.65;;;13.40;70.20;;;;;;10566606;28;20024;-55
2022/01/04 21:03:02;;;;;;;1.58;0.90;;;13.40;70.20;;;;;;10549667;28;20451;-55
2022/01/04 21:08:03;;;;;;;2.08;1.30;;;13.40;70.20;;;;;;10518847;28;20395;-54
2022/01/04 21:13:03;;;;;;;0.80;0.68;;;13.40;70.20;;;;;;10518290;28;20553;-55
2022/01/04 21:18:04;;;;;;;0.82;0.60;;;13.40;70.20;;;;;;10517979;28;20078;-55
2022/01/04 21:23:05;;;;;;;0.85;0.60;;;13.40;70.20;;;;;;10501260;28;20044;-55
2022/01/04 21:28:06;;;;;;;1.48;0.80;;;13.40;70.20;;;;;;10535924;28;20036;-56
2022/01/04 21:33:07;;;;;;;0.95;0.77;;;13.40;70.20;;;;;;10517780;28;20061;-54
2022/01/04 21:38:09;;;;;;;0.85;0.57;;;13.40;70.20;;;;;;10535828;28;20039;-56
2022/01/04 21:43:10;;;;;;;1.17;0.80;;;13.40;70.20;;;;;;10535770;28;20024;-55
2022/01/04 21:48:10;;;;;;;0.82;0.50;;;13.40;70.20;;;;;;10517470;28;20141;-54
2022/01/04 21:53:13;;;;;;;0.95;0.52;;;13.40;70.20;;;;;;10537518;28;20031;-55
2022/01/04 21:58:14;;;;;;;0.93;0.60;;;13.40;70.20;;;;;;10556600;28;20023;-55
2022/01/04 22:03:14;;;;;;;2.03;0.70;;;13.40;70.20;;;;;;10536795;28;20074;-55
2022/01/04 22:08:15;;;;;;;0.98;0.68;;;13.30;70.20;;;;;;10543404;28;20119;-55
2022/01/04 22:13:16;;;;;;;0.70;0.63;;;13.30;70.10;;;;;;10525143;28;20341;-56
2022/01/04 22:18:16;;;;;;;0.90;0.50;;;13.30;70.20;;;;;;10524905;28;20056;-56
2022/01/04 22:23:17;;;;;;;0.90;0.80;;;13.30;70.20;;;;;;10524137;28;20131;-55
2022/01/04 22:28:18;;;;;;;0.77;0.60;;;13.30;70.10;;;;;;10542572;28;20040;-56
2022/01/04 22:33:19;;;;;;;0.77;0.60;;;13.30;70.20;;;;;;10524073;28;20115;-55
2022/01/04 22:38:20;;;;;;;1.45;0.65;;;13.30;70.20;;;;;;10542382;28;20039;-54
2022/01/04 22:43:21;;;;;;;0.70;0.57;;;13.30;70.20;;;;;;10542001;28;20020;-56
2022/01/04 22:48:21;;;;;;;1.17;1.02;;;13.30;70.20;;;;;;10541721;28;20113;-53
2022/01/04 22:53:22;;;;;;;0.63;0.50;;;13.30;70.20;;;;;;10523993;28;20032;-56
2022/01/04 22:58:23;;;;;;;0.93;0.68;;;13.30;70.20;;;;;;10555507;28;20020;-54
2022/01/04 23:03:24;;;;;;;0.85;0.45;;;13.30;70.20;;;;;;10532850;28;20034;-54
2022/01/04 23:08:25;;;;;;;0.93;0.52;;;13.30;70.20;;;;;;10541027;28;20020;-54
2022/01/04 23:13:25;;;;;;;1.00;0.77;;;13.30;70.20;;;;;;10522634;28;20059;-55
2022/01/04 23:18:26;;;;;;;0.82;0.57;;;13.20;70.20;;;;;;10540792;28;20032;-55
2022/01/04 23:23:27;;;;;;;0.93;0.50;;;13.20;70.10;;;;;;10540508;28;20121;-55
2022/01/04 23:28:29;;;;;;;0.88;0.50;;;13.20;70.20;;;;;;10521869;28;20064;-56
2022/01/04 23:33:30;;;;;;;0.73;0.50;;;13.20;70.20;;;;;;10522045;28;20034;-56
2022/01/04 23:38:31;;;;;;;0.93;0.60;;;13.20;70.20;;;;;;10521369;28;20559;-55
2022/01/04 23:43:32;;;;;;;0.80;0.50;;;13.20;70.20;;;;;;10521232;28;20024;-56
2022/01/04 23:48:32;;;;;;;1.67;0.98;;;13.20;70.20;;;;;;10539227;28;20111;-56
2022/01/04 23:53:33;;;;;;;0.80;0.60;;;13.20;70.20;;;;;;10538929;28;20032;-56
2022/01/04 23:58:34;;;;;;;1.33;0.60;;;13.20;70.20;;;;;;10572974;28;20111;-55
